Flight Track Log - Related Links

Times and Time Zones

All times are in EDT time to prevent confusion due to time zone crossing. See the SWA3587 flight status page for this flight to view local times or setup timezone preferences in your user account.

Time Position Orientation Groundspeed Altitude Reporting Facility
EDT Latitude Longitude Course Direction KTS MPH feet Rate Location/Type
Sat 09:15:08 PM 38.8825 -77.0586 317° Northwest 181 208 1,700  Level Washington Center
Sat 09:16:08 PM 38.9303 -77.1150 317° Northwest 239 275 5,200 4,258 Climbing Washington Center
Sat 09:17:12 PM 38.9792 -77.1886 311° West 273 314 10,500 3,936 Climbing Washington Center
Sat 09:18:13 PM 38.9772 -77.3083 269° West 331 381 13,400 3,393 Climbing Washington Center
Sat 09:19:14 PM 38.9761 -77.4456 269° West 373 429 17,400 4,413 Climbing Washington Center
Sat 09:20:14 PM 38.9736 -77.5944 269° West 376 433 22,300 3,919 Climbing Washington Center
Sat 09:21:18 PM 38.9708 -77.7267 268° West 374 430 25,500 2,976 Climbing Washington Center
Sat 09:22:19 PM 38.9683 -77.8633 269° West 382 440 28,500 2,380 Climbing Washington Center
Sat 09:23:19 PM 38.9656 -78.0122 269° West 400 460 30,300 1,805 Climbing Washington Center
Sat 09:24:22 PM 38.9619 -78.1661 268° West 428 493 32,200 2,000 Climbing Washington Center
Sat 09:25:22 PM 38.9669 -78.3156 273° West 417 480 34,400 2,803 Climbing Washington Center
Sat 09:26:24 PM 38.9775 -78.4839 275° West 392 451 37,900 2,557 Climbing Washington Center
Sat 09:27:24 PM 38.9867 -78.6203 275° West 386 444 39,600 1,024 Climbing Washington Center
Sat 09:28:27 PM 38.9964 -78.7603 275° West 392 451 40,000 195 Climbing Washington Center
Sat 09:29:27 PM 39.0325 -78.8900 290° West 383 441 40,000  Level Washington Center
Sat 09:30:29 PM 39.0756 -79.0172 294° West 383 441 40,000  Level Washington Center
Sat 09:31:30 PM 39.1194 -79.1436 294° West 384 442 40,000  Level Washington Center
Sat 09:32:32 PM 39.1603 -79.2669 293° West 387 445 40,000  Level Washington Center
Sat 09:33:33 PM 39.2047 -79.3947 294° West 389 448 40,000  Level Washington Center
Sat 09:34:17 PM 39.2389 -79.4964 293° West 388 447 40,000  Level Cleveland Center
Sat 09:35:18 PM 39.2819 -79.6228 294° West 388 447 40,000  Level Cleveland Center
Sat 09:36:19 PM 39.3256 -79.7511 294° West 388 447 40,000  Level Cleveland Center
Sat 09:37:20 PM 39.3681 -79.8806 293° West 389 448 40,000  Level Cleveland Center
Sat 09:38:21 PM 39.4197 -80.0358 293° West 390 449 40,000  Level Cleveland Center
Sat 09:39:23 PM 39.4617 -80.1647 293° West 390 449 40,000  Level Cleveland Center
Sat 09:40:24 PM 39.5058 -80.2942 294° West 390 449 40,000  Level Cleveland Center
Sat 09:41:25 PM 39.5481 -80.4272 292° West 395 455 40,000  Level Cleveland Center
Sat 09:42:26 PM 39.5922 -80.5583 294° West 397 457 40,000  Level Cleveland Center
Sat 09:43:27 PM 39.6347 -80.6908 293° West 397 457 40,000  Level Cleveland Center
Sat 09:44:28 PM 39.6764 -80.8217 293° West 396 456 40,000  Level Cleveland Center
Sat 09:45:29 PM 39.7197 -80.9522 293° West 396 456 40,000  Level Cleveland Center
Sat 09:46:30 PM 39.7606 -81.0819 292° West 391 450 40,000  Level Cleveland Center
Sat 09:47:31 PM 39.8025 -81.2119 293° West 390 449 40,000  Level Cleveland Center
Sat 09:48:32 PM 39.8431 -81.3392 293° West 388 447 40,000  Level Cleveland Center
Sat 09:49:34 PM 39.8881 -81.4803 293° West 383 441 40,000  Level Indianapolis Center
Sat 09:50:35 PM 39.9283 -81.6089 292° West 383 441 40,000  Level Indianapolis Center
Sat 09:51:35 PM 39.9675 -81.7372 292° West 383 441 40,000  Level Indianapolis Center
Sat 09:52:36 PM 40.0078 -81.8653 292° West 383 441 40,000  Level Indianapolis Center
Sat 09:53:37 PM 40.0472 -81.9958 292° West 383 441 40,000  Level Indianapolis Center
Sat 09:54:38 PM 40.0881 -82.1258 292° West 385 443 40,000  Level Indianapolis Center
Sat 09:55:38 PM 40.1300 -82.2561 293° West 387 445 40,000  Level Indianapolis Center
Sat 09:56:39 PM 40.1689 -82.3875 291° West 388 447 40,000  Level Indianapolis Center
Sat 09:57:40 PM 40.2086 -82.5175 292° West 388 447 40,000  Level Indianapolis Center
Sat 09:58:40 PM 40.2492 -82.6500 292° West 389 448 40,000  Level Indianapolis Center
Sat 09:59:41 PM 40.2964 -82.8072 292° West 389 448 40,000 -492 Level Indianapolis Center
Sat 10:00:42 PM 40.3364 -82.9397 292° West 389 448 39,000 -934 Descending Indianapolis Center
Sat 10:01:43 PM 40.3764 -83.0744 291° West 396 456 38,100 -496 Descending Indianapolis Center
Sat 10:02:43 PM 40.4167 -83.2103 291° West 398 458 38,000 -50 Descending Indianapolis Center
Sat 10:03:44 PM 40.4564 -83.3442 291° West 398 458 38,000  Level Indianapolis Center
Sat 10:04:45 PM 40.4956 -83.4794 291° West 398 458 38,000  Level Indianapolis Center
Sat 10:05:45 PM 40.5344 -83.6147 291° West 398 458 38,000  Level Indianapolis Center
Sat 10:06:46 PM 40.5742 -83.7511 291° West 398 458 38,000  Level Indianapolis Center
Sat 10:07:47 PM 40.6144 -83.8886 291° West 399 459 38,000  Level Indianapolis Center
Sat 10:08:47 PM 40.6536 -84.0283 290° West 406 467 38,000  Level Indianapolis Center
Sat 10:09:48 PM 40.6942 -84.1689 291° West 409 471 38,000  Level Indianapolis Center
Sat 10:10:49 PM 40.7342 -84.3114 290° West 412 474 38,000  Level Indianapolis Center
Sat 10:11:49 PM 40.7758 -84.4564 291° West 418 481 38,000 -248 Level Indianapolis Center
Sat 10:12:50 PM 40.8242 -84.6314 290° West 422 486 37,500 -738 Descending Indianapolis Center
Sat 10:13:51 PM 40.8653 -84.7753 291° West 422 486 36,500 -992 Descending Indianapolis Center
Sat 10:14:51 PM 40.9272 -84.9036 303° West 421 484 35,500 -992 Descending Indianapolis Center
Sat 10:15:52 PM 40.9964 -85.0358 305° West 421 484 34,500 -984 Descending Indianapolis Center
Sat 10:16:53 PM 41.0633 -85.1644 305° West 422 486 33,500 -934 Descending Indianapolis Center
Sat 10:17:54 PM 41.1306 -85.2950 304° West 427 491 32,600 -1,190 Descending Indianapolis Center
Sat 10:18:54 PM 41.1969 -85.4258 304° West 427 491 31,100 -1,934 Descending Indianapolis Center
Sat 10:19:55 PM 41.2633 -85.5547 304° West 427 491 28,700 -1,636 Descending Indianapolis Center
Sat 10:20:55 PM 41.3278 -85.6808 304° West 421 484 27,800 -1,488 Descending Indianapolis Center
Sat 10:21:56 PM 41.3908 -85.8061 304° West 413 475 25,700 -1,967 Descending Indianapolis Center
Sat 10:22:57 PM 41.4458 -85.9292 301° West 390 449 23,800 -2,430 Descending Indianapolis Center
Sat 10:23:57 PM 41.4561 -86.0733 275° West 388 447 20,800 -2,727 Descending Indianapolis Center
Sat 10:24:58 PM 41.4647 -86.2133 275° West 387 445 18,300 -2,476 Descending Indianapolis Center
Sat 10:26:20 PM 41.4733 -86.3917 274° West 360 414 14,900 -2,476 Descending Chicago Center
Sat 10:27:21 PM 41.4808 -86.5219 274° West 354 407 12,400 -1,918 Descending Chicago Center
Sat 10:28:22 PM 41.4886 -86.6442 275° West 335 386 11,000 -1,131 Descending Chicago Center
Sat 10:29:23 PM 41.4975 -86.7808 275° West 305 351 10,100 -443 Descending Chicago Center
Sat 10:30:24 PM 41.5028 -86.8836 274° West 280 322 10,100 -645 Level Chicago Center
Sat 10:31:24 PM 41.5078 -86.9831 274° West 271 312 8,800 -1,438 Descending Chicago Center
Sat 10:32:25 PM 41.5125 -87.0808 274° West 269 310 7,200 -1,328 Descending Chicago Center
Sat 10:33:26 PM 41.5175 -87.1764 274° West 262 302 6,100 -1,180 Descending Chicago Center
Sat 10:34:27 PM 41.5239 -87.2719 275° West 260 299 4,800 -992 Descending Chicago Center
Sat 10:35:27 PM 41.5328 -87.3767 277° West 263 303 4,100 -347 Descending Chicago Center
Sat 10:36:28 PM 41.5475 -87.4700 282° West 262 302 4,100  Level Chicago Center
Sat 10:37:29 PM 41.5686 -87.5603 287° West 259 298 4,100 -344 Level Chicago Center
Sat 10:38:30 PM 41.5917 -87.6475 289° West 255 293 3,400 -744 Descending Chicago Center
Sat 10:39:30 PM 41.6367 -87.7169 311° West 252 290 2,600 -397 Descending Chicago Center
Sat 10:40:31 PM 41.6761 -87.7817 309° West 213 245 2,600 -49 Level Chicago Center
Sat 10:41:32 PM 41.7078 -87.8311 311° West 178 205 2,500 -397 Descending Chicago Center
Sat 10:42:32 PM 41.7403 -87.8083 28° Northeast 147 169 1,800 -694 Descending Chicago Center
Sat 10:43:33 PM 41.7661 -87.7756 43° Northeast 130 150 1,100 -492 Descending Chicago Center
Sat 10:44:34 PM 41.7922 -87.7439 42° Northeast 130 150 800 -295 Descending Chicago Center

Login

Don't have an account? Register now (free) for customized features, flight alerts, and more!